Time;durP1;ratioP1;P1;durP2;ratioP2;P2;SDS_P1;SDS_P2;PMS_P1;PMS_P2;Temp;Humidity;BMP_temperature;BMP_pressure;BME280_temperature;BME280_humidity;BME280_pressure;Samples;Min_cycle;Max_cycle;Signal;HPM_P1;HPM_P2
2022/12/17 13:07:27;;;;;;;46.87;15.33;;;0.80;82.90;;;;;;5074657;28;20086;-72
2022/12/17 13:09:56;;;;;;;50.33;18.23;;;0.80;83.00;;;;;;5068782;28;20051;-72
2022/12/17 13:12:29;;;;;;;47.17;17.25;;;0.80;83.00;;;;;;5064958;28;20050;-72
2022/12/17 13:15:16;;;;;;;51.25;19.90;;;0.80;83.00;;;;;;5079214;28;20127;-72
2022/12/17 13:17:54;;;;;;;40.03;14.73;;;0.80;82.80;;;;;;5069413;28;20104;-72
2022/12/17 13:20:26;;;;;;;52.30;18.90;;;0.80;82.60;;;;;;5072324;28;20185;-72
2022/12/17 13:23:15;;;;;;;48.78;18.63;;;0.80;82.50;;;;;;5057692;28;20050;-72
2022/12/17 13:25:42;;;;;;;54.38;20.33;;;0.80;82.50;;;;;;5056462;28;20047;-72
2022/12/17 13:28:29;;;;;;;50.50;20.48;;;0.80;82.40;;;;;;5074764;28;20053;-72
2022/12/17 13:31:04;;;;;;;44.10;14.90;;;0.80;82.50;;;;;;5068058;28;20091;-72
2022/12/17 13:33:40;;;;;;;47.10;16.80;;;0.80;82.70;;;;;;5070024;28;20490;-72
2022/12/17 13:36:16;;;;;;;52.53;18.60;;;0.70;82.60;;;;;;5055235;28;20056;-72
2022/12/17 13:38:51;;;;;;;48.10;18.13;;;0.70;82.60;;;;;;5072895;28;20198;-72
2022/12/17 13:41:20;;;;;;;51.95;20.35;;;0.80;82.50;;;;;;5074194;28;20046;-72
2022/12/17 13:43:49;;;;;;;47.03;17.60;;;0.70;82.40;;;;;;5049232;28;20059;-72
2022/12/17 13:46:22;;;;;;;51.20;16.63;;;0.70;82.50;;;;;;5032609;28;20049;-72
2022/12/17 13:48:58;;;;;;;54.13;17.70;;;0.60;82.50;;;;;;5063394;28;20135;-72
2022/12/17 13:51:27;;;;;;;49.08;18.10;;;0.60;82.30;;;;;;5067035;28;20544;-71
2022/12/17 13:53:57;;;;;;;50.05;18.42;;;0.60;82.40;;;;;;5055474;28;20503;-71
2022/12/17 13:56:27;;;;;;;52.97;18.45;;;0.60;82.40;;;;;;5059393;28;20971;-72
2022/12/17 13:58:56;;;;;;;52.60;18.03;;;0.60;82.60;;;;;;5056115;28;20045;-72
2022/12/17 14:01:25;;;;;;;52.00;18.95;;;0.60;82.60;;;;;;5053781;28;20056;-71
2022/12/17 14:03:54;;;;;;;51.10;19.42;;;0.60;82.80;;;;;;5072476;28;20045;-72
2022/12/17 14:06:23;;;;;;;50.88;19.15;;;0.60;82.90;;;;;;5057205;28;20139;-71
2022/12/17 14:08:52;;;;;;;52.00;18.58;;;0.60;82.80;;;;;;5053525;28;20053;-71
2022/12/17 14:14:15;;;;;;;38.50;12.32;;;0.60;82.80;;;;;;5056579;28;20066;-71
2022/12/17 14:16:42;;;;;;;47.50;17.67;;;0.60;82.70;;;;;;5057746;28;20045;-71
2022/12/17 14:19:10;;;;;;;51.30;18.50;;;0.60;82.20;;;;;;5059464;28;20517;-72
2022/12/17 14:21:39;;;;;;;53.63;17.85;;;0.60;82.00;;;;;;5059880;28;20052;-71
2022/12/17 14:24:12;;;;;;;52.57;18.37;;;0.60;82.10;;;;;;5065847;28;20057;-72
2022/12/17 14:26:49;;;;;;;48.22;17.60;;;0.60;82.10;;;;;;5063203;28;20045;-72
2022/12/17 14:29:22;;;;;;;50.50;17.70;;;0.50;82.30;;;;;;5056543;28;20132;-72
2022/12/17 14:31:54;;;;;;;45.97;16.02;;;0.50;82.20;;;;;;5023753;28;20069;-72
2022/12/17 14:34:21;;;;;;;48.63;17.00;;;0.50;82.20;;;;;;5080638;28;20135;-72
2022/12/17 14:36:54;;;;;;;49.00;16.17;;;0.50;82.40;;;;;;5079739;28;20056;-73
2022/12/17 14:39:24;;;;;;;46.10;15.55;;;0.50;82.30;;;;;;5090529;28;20080;-73
2022/12/17 14:44:50;;;;;;;54.30;20.35;;;0.40;82.10;;;;;;5089075;28;20136;-72
2022/12/17 14:47:20;;;;;;;51.45;17.30;;;0.40;82.10;;;;;;5088646;28;20065;-72
2022/12/17 14:50:04;;;;;;;51.70;17.90;;;0.40;81.90;;;;;;5101329;28;20063;-72
2022/12/17 14:52:45;;;;;;;51.28;17.63;;;0.30;81.70;;;;;;5086471;28;20409;-72
2022/12/17 14:55:37;;;;;;;49.47;17.85;;;0.30;81.70;;;;;;5083034;28;20056;-72
2022/12/17 14:58:21;;;;;;;47.47;16.73;;;0.20;81.80;;;;;;5063278;28;20037;-72
2022/12/17 15:00:52;;;;;;;46.03;16.77;;;0.20;81.90;;;;;;5093071;28;20171;-72
2022/12/17 15:03:23;;;;;;;46.17;16.53;;;0.20;81.90;;;;;;5098759;28;20131;-72
2022/12/17 15:05:53;;;;;;;51.40;17.42;;;0.20;82.00;;;;;;5084122;28;20527;-72
2022/12/17 15:08:21;;;;;;;53.33;17.85;;;0.10;82.10;;;;;;5096399;28;20056;-72
2022/12/17 15:10:48;;;;;;;54.28;17.88;;;0.10;82.10;;;;;;5102247;28;20047;-72
2022/12/17 15:13:15;;;;;;;50.95;16.70;;;0.00;82.10;;;;;;5085639;28;20459;-72
2022/12/17 15:15:44;;;;;;;45.80;14.50;;;0.00;82.10;;;;;;5087588;28;20080;-73
2022/12/17 15:18:11;;;;;;;49.00;15.20;;;0.00;82.20;;;;;;5099581;28;20090;-72
2022/12/17 15:20:38;;;;;;;50.60;15.57;;;0.00;82.20;;;;;;5108081;28;20054;-72
2022/12/17 15:23:06;;;;;;;54.22;18.52;;;0.00;82.20;;;;;;5104026;28;20055;-72
2022/12/17 15:25:33;;;;;;;44.08;14.93;;;0.00;82.20;;;;;;5092258;28;20056;-72
2022/12/17 15:28:00;;;;;;;47.63;16.53;;;0.00;82.20;;;;;;5075306;28;20068;-72
2022/12/17 15:30:27;;;;;;;48.50;16.15;;;-0.10;82.20;;;;;;5088438;28;20098;-72
2022/12/17 15:32:55;;;;;;;50.72;16.63;;;-0.10;82.40;;;;;;5097390;28;20829;-72
2022/12/17 15:35:22;;;;;;;49.22;16.00;;;-0.10;82.50;;;;;;5095513;28;20139;-72
2022/12/17 15:37:49;;;;;;;49.17;15.50;;;-0.10;82.50;;;;;;5096686;28;20052;-72
2022/12/17 15:40:16;;;;;;;50.87;15.53;;;-0.10;82.60;;;;;;5085097;28;20131;-73
2022/12/17 15:45:28;;;;;;;47.15;13.73;;;-0.10;82.70;;;;;;5085438;28;20152;-73
2022/12/17 15:47:56;;;;;;;52.85;15.77;;;-0.20;82.80;;;;;;5082289;28;20053;-72
2022/12/17 15:50:23;;;;;;;47.38;14.32;;;-0.20;82.80;;;;;;5081089;28;20053;-72
2022/12/17 15:52:51;;;;;;;45.17;15.13;;;-0.20;82.80;;;;;;5099354;28;20054;-72
2022/12/17 15:55:18;;;;;;;43.08;14.80;;;-0.20;82.90;;;;;;5090665;28;20057;-72
2022/12/17 15:57:45;;;;;;;46.95;15.15;;;-0.20;82.80;;;;;;5094198;28;20913;-72
2022/12/17 16:00:13;;;;;;;38.38;12.25;;;-0.20;82.70;;;;;;5080187;28;20059;-73
2022/12/17 16:02:40;;;;;;;50.33;15.70;;;-0.30;82.70;;;;;;5076248;28;20051;-72
2022/12/17 16:05:09;;;;;;;47.47;13.50;;;-0.30;82.70;;;;;;5089831;28;20107;-72
2022/12/17 16:07:37;;;;;;;54.58;16.55;;;-0.40;82.60;;;;;;5086971;28;20423;-71
2022/12/17 16:10:04;;;;;;;41.05;12.88;;;-0.40;82.60;;;;;;5083476;28;20049;-72
2022/12/17 16:12:31;;;;;;;55.60;15.68;;;-0.50;82.80;;;;;;5096904;28;20052;-72
2022/12/17 16:14:58;;;;;;;56.35;17.48;;;-0.50;82.80;;;;;;5087887;28;20132;-71
2022/12/17 16:17:25;;;;;;;51.70;16.17;;;-0.50;83.00;;;;;;5085038;28;20057;-72
2022/12/17 16:19:52;;;;;;;55.10;17.38;;;-0.60;83.00;;;;;;5089606;28;20494;-72
2022/12/17 16:22:21;;;;;;;53.80;18.30;;;-0.60;83.10;;;;;;5076044;28;20629;-71
2022/12/17 16:24:48;;;;;;;52.80;15.98;;;-0.60;83.30;;;;;;5075928;28;20056;-71
2022/12/17 16:27:16;;;;;;;47.42;15.65;;;-0.60;83.30;;;;;;5075655;28;20140;-71
2022/12/17 16:29:44;;;;;;;52.60;15.57;;;-0.70;83.30;;;;;;5076345;28;20076;-72
2022/12/17 16:32:11;;;;;;;39.25;12.25;;;-0.70;83.30;;;;;;5072534;28;20052;-71
2022/12/17 16:34:38;;;;;;;58.75;19.33;;;-0.70;83.40;;;;;;5064971;28;20506;-71
2022/12/17 16:37:06;;;;;;;54.30;15.77;;;-0.70;83.40;;;;;;5059329;28;20044;-71
2022/12/17 16:39:34;;;;;;;55.83;16.45;;;-0.70;83.50;;;;;;5079485;28;20548;-71
2022/12/17 16:42:01;;;;;;;43.97;13.13;;;-0.70;83.40;;;;;;5075814;28;20418;-71
2022/12/17 16:44:28;;;;;;;51.78;15.98;;;-0.70;83.50;;;;;;5078648;28;20168;-71
2022/12/17 16:46:55;;;;;;;52.42;15.60;;;-0.70;83.40;;;;;;5076449;28;20934;-71
2022/12/17 16:49:23;;;;;;;41.53;13.65;;;-0.80;83.50;;;;;;5078046;28;20048;-72
2022/12/17 16:51:52;;;;;;;49.08;15.57;;;-0.90;83.60;;;;;;5084181;28;20573;-71
2022/12/17 16:54:21;;;;;;;50.77;16.03;;;-0.90;83.70;;;;;;5090092;28;20055;-72
2022/12/17 16:56:50;;;;;;;53.97;18.75;;;-0.90;83.70;;;;;;5093846;28;20072;-71
2022/12/17 16:59:17;;;;;;;56.80;17.58;;;-0.90;84.00;;;;;;5068422;28;20151;-72
2022/12/17 17:01:47;;;;;;;51.05;15.88;;;-0.90;83.90;;;;;;5088847;28;20040;-71
2022/12/17 17:04:16;;;;;;;54.55;16.60;;;-0.90;84.00;;;;;;5086156;28;20053;-71
2022/12/17 17:06:45;;;;;;;51.07;16.20;;;-0.90;84.00;;;;;;5088337;28;20047;-71
2022/12/17 17:09:13;;;;;;;48.25;15.52;;;-0.90;84.00;;;;;;5073411;28;20060;-71
2022/12/17 17:11:41;;;;;;;42.45;13.38;;;-0.90;84.00;;;;;;5071709;28;20136;-71
2022/12/17 17:14:10;;;;;;;48.30;16.73;;;-0.90;84.10;;;;;;5080246;28;20590;-71
2022/12/17 17:16:38;;;;;;;50.47;16.05;;;-0.90;84.20;;;;;;5076867;28;20500;-70
2022/12/17 17:19:06;;;;;;;56.70;17.10;;;-0.90;84.10;;;;;;5088491;28;20040;-71
2022/12/17 17:21:35;;;;;;;56.78;17.50;;;-0.90;84.20;;;;;;5084387;28;20098;-71
2022/12/17 17:24:06;;;;;;;61.95;19.27;;;-0.90;84.20;;;;;;5076834;28;20128;-72
2022/12/17 17:26:34;;;;;;;58.55;20.10;;;-1.00;84.20;;;;;;5089455;28;20823;-71
2022/12/17 17:29:01;;;;;;;55.92;16.10;;;-1.00;84.20;;;;;;5081413;28;20144;-72
2022/12/17 17:31:30;;;;;;;48.20;15.20;;;-1.00;84.30;;;;;;5074591;28;21137;-72
2022/12/17 17:33:57;;;;;;;50.30;15.02;;;-1.00;84.40;;;;;;5080065;28;20045;-71
2022/12/17 17:36:26;;;;;;;52.75;16.00;;;-1.00;84.50;;;;;;5078902;28;20049;-72
2022/12/17 17:38:55;;;;;;;44.72;15.27;;;-1.00;84.40;;;;;;5081028;28;20082;-71
2022/12/17 17:41:24;;;;;;;51.22;15.27;;;-1.00;84.50;;;;;;5074976;28;20059;-72
2022/12/17 17:43:53;;;;;;;56.70;16.33;;;-1.00;84.60;;;;;;5069126;28;20056;-71
2022/12/17 17:46:21;;;;;;;46.85;14.32;;;-1.00;84.70;;;;;;5076274;28;20143;-72
2022/12/17 17:48:52;;;;;;;51.13;16.52;;;-1.00;84.80;;;;;;5073206;28;20053;-72
2022/12/17 17:51:22;;;;;;;57.22;17.13;;;-1.00;84.70;;;;;;5071387;28;21073;-73
2022/12/17 17:53:50;;;;;;;58.78;19.83;;;-1.00;84.70;;;;;;5110276;22;20164;-72
2022/12/17 17:56:19;;;;;;;47.63;15.37;;;-1.00;84.60;;;;;;5076732;28;20037;-72
2022/12/17 17:58:50;;;;;;;50.60;16.58;;;-1.00;84.60;;;;;;5068270;28;20127;-72
2022/12/17 18:01:19;;;;;;;54.55;17.50;;;-1.00;84.60;;;;;;5067954;28;20892;-71
2022/12/17 18:03:46;;;;;;;54.70;17.75;;;-1.10;84.60;;;;;;5077278;28;20814;-70
2022/12/17 18:06:15;;;;;;;49.13;15.43;;;-1.10;84.70;;;;;;5080130;28;20056;-71
2022/12/17 18:08:42;;;;;;;52.73;15.73;;;-1.10;84.60;;;;;;5071971;28;20049;-71
2022/12/17 18:11:11;;;;;;;41.80;12.90;;;-1.10;84.60;;;;;;5068932;28;20556;-71
2022/12/17 18:13:56;;;;;;;60.65;19.52;;;-1.10;84.70;;;;;;5079022;28;20824;-72
2022/12/17 18:16:25;;;;;;;44.67;15.13;;;-1.10;84.70;;;;;;5091966;28;20060;-72
2022/12/17 18:18:54;;;;;;;53.97;16.33;;;-1.10;84.70;;;;;;5082789;28;20054;-71
2022/12/17 18:21:24;;;;;;;62.87;19.07;;;-1.10;84.70;;;;;;5080136;27;20757;-71
2022/12/17 18:23:55;;;;;;;59.10;17.10;;;-1.10;84.80;;;;;;5097556;27;20036;-71
2022/12/17 18:26:24;;;;;;;57.50;16.90;;;-1.10;84.80;;;;;;5087714;28;20048;-71
2022/12/17 18:28:51;;;;;;;56.67;17.60;;;-1.10;84.90;;;;;;5089658;28;20048;-72
2022/12/17 18:31:20;;;;;;;55.15;19.27;;;-1.10;84.90;;;;;;5085535;28;20130;-71
2022/12/17 18:33:49;;;;;;;53.40;17.87;;;-1.10;85.00;;;;;;5071414;28;20049;-72
2022/12/17 18:36:18;;;;;;;52.13;17.17;;;-1.10;85.00;;;;;;5078781;28;20048;-72
2022/12/17 18:38:47;;;;;;;50.72;18.45;;;-1.10;84.80;;;;;;5076141;28;20045;-71
2022/12/17 18:44:03;;;;;;;42.70;16.50;;;-1.10;84.60;;;;;;5078493;28;20043;-71
2022/12/17 18:46:31;;;;;;;52.63;18.03;;;-1.20;84.70;;;;;;5081592;28;20171;-72
2022/12/17 18:49:00;;;;;;;45.25;14.82;;;-1.30;84.80;;;;;;5080779;28;20065;-71
2022/12/17 18:51:27;;;;;;;43.00;14.82;;;-1.30;84.80;;;;;;5077242;28;20566;-71
2022/12/17 18:53:58;;;;;;;48.95;15.95;;;-1.30;84.70;;;;;;5079202;28;20049;-72
2022/12/17 18:56:26;;;;;;;46.80;16.50;;;-1.30;84.70;;;;;;5080344;28;20083;-71
2022/12/17 18:58:53;;;;;;;48.23;15.10;;;-1.30;84.70;;;;;;5076101;28;20045;-71
2022/12/17 19:01:22;;;;;;;49.60;15.95;;;-1.30;84.70;;;;;;5087124;28;20053;-71
2022/12/17 19:03:49;;;;;;;42.85;15.38;;;-1.40;84.70;;;;;;5082995;28;20107;-71
2022/12/17 19:06:17;;;;;;;44.97;15.55;;;-1.40;84.80;;;;;;5080613;28;20131;-71
2022/12/17 19:08:44;;;;;;;54.35;18.75;;;-1.50;84.70;;;;;;5067314;28;20044;-71
2022/12/17 19:11:18;;;;;;;44.17;16.33;;;-1.50;84.90;;;;;;5078702;28;20131;-71
2022/12/17 19:13:46;;;;;;;56.08;19.98;;;-1.50;84.80;;;;;;5086791;28;20080;-71
2022/12/17 19:16:15;;;;;;;53.00;19.58;;;-1.50;84.90;;;;;;5085300;28;20052;-71
2022/12/17 19:18:42;;;;;;;50.10;18.20;;;-1.50;84.90;;;;;;5085864;28;20057;-71
2022/12/17 19:21:16;;;;;;;46.60;16.83;;;-1.50;85.00;;;;;;5088206;28;20056;-71
2022/12/17 19:23:43;;;;;;;51.60;18.30;;;-1.50;85.00;;;;;;5089417;28;20179;-71
2022/12/17 19:26:13;;;;;;;59.60;20.95;;;-1.50;84.90;;;;;;5070694;28;20506;-71
2022/12/17 19:28:43;;;;;;;40.92;14.60;;;-1.50;85.00;;;;;;5087935;28;20051;-71
2022/12/17 19:31:11;;;;;;;53.47;18.48;;;-1.50;85.00;;;;;;5087664;28;20159;-71
2022/12/17 19:33:39;;;;;;;55.55;19.65;;;-1.50;85.00;;;;;;5084797;28;20122;-71
2022/12/17 19:36:10;;;;;;;61.13;21.57;;;-1.50;85.10;;;;;;5085349;28;20059;-71
2022/12/17 19:38:37;;;;;;;54.47;18.80;;;-1.50;85.10;;;;;;5078862;28;20130;-72
2022/12/17 19:41:07;;;;;;;45.58;15.77;;;-1.50;85.20;;;;;;5072894;28;20683;-71
2022/12/17 19:43:34;;;;;;;63.90;21.25;;;-1.50;85.20;;;;;;5067228;28;20262;-71
2022/12/17 19:46:04;;;;;;;59.15;19.73;;;-1.50;85.10;;;;;;5076299;28;20067;-71
2022/12/17 19:48:32;;;;;;;51.83;19.13;;;-1.50;85.10;;;;;;5077905;28;20053;-71
2022/12/17 19:51:00;;;;;;;55.65;18.67;;;-1.50;85.20;;;;;;5077042;28;20059;-71
2022/12/17 19:53:28;;;;;;;54.92;19.52;;;-1.50;85.20;;;;;;5078940;28;20060;-71
2022/12/17 19:55:56;;;;;;;63.22;22.40;;;-1.50;85.10;;;;;;5073295;28;20049;-71
2022/12/17 19:58:24;;;;;;;55.20;19.15;;;-1.50;85.20;;;;;;5078096;28;20049;-71
2022/12/17 20:00:52;;;;;;;60.33;19.20;;;-1.50;85.30;;;;;;5072045;28;20067;-71
2022/12/17 20:03:20;;;;;;;54.78;18.23;;;-1.50;85.20;;;;;;5074537;28;20045;-71
2022/12/17 20:05:47;;;;;;;49.55;17.65;;;-1.50;85.30;;;;;;5080869;28;20409;-71
2022/12/17 20:08:14;;;;;;;62.60;22.65;;;-1.50;85.30;;;;;;5070162;28;20056;-71
2022/12/17 20:10:41;;;;;;;53.03;19.67;;;-1.50;85.40;;;;;;5078227;28;20131;-71
2022/12/17 20:13:09;;;;;;;56.90;18.80;;;-1.50;85.30;;;;;;5081253;28;20148;-71
2022/12/17 20:15:36;;;;;;;57.78;20.58;;;-1.50;85.20;;;;;;5080145;28;20501;-71
2022/12/17 20:18:04;;;;;;;59.20;19.30;;;-1.50;85.20;;;;;;5078019;28;20052;-71
2022/12/17 20:20:32;;;;;;;38.20;13.02;;;-1.50;85.30;;;;;;5076744;28;20051;-71
2022/12/17 20:23:00;;;;;;;57.53;18.95;;;-1.50;85.30;;;;;;5076035;28;20085;-72
2022/12/17 20:25:27;;;;;;;58.13;20.37;;;-1.50;85.10;;;;;;5072035;28;20053;-71
2022/12/17 20:27:54;;;;;;;48.47;15.68;;;-1.50;85.00;;;;;;5087694;28;20048;-71
2022/12/17 20:30:24;;;;;;;57.30;17.45;;;-1.60;85.10;;;;;;5079218;28;20179;-71
2022/12/17 20:32:52;;;;;;;29.85;8.65;;;-1.60;85.10;;;;;;5076621;28;20051;-71
2022/12/17 20:35:20;;;;;;;60.20;19.67;;;-1.60;85.10;;;;;;5077149;28;20071;-70
2022/12/17 20:37:48;;;;;;;54.13;17.83;;;-1.60;85.10;;;;;;5080188;28;20057;-71
2022/12/17 20:40:15;;;;;;;49.60;16.60;;;-1.60;85.10;;;;;;5073946;28;20045;-71
2022/12/17 20:42:42;;;;;;;53.20;17.88;;;-1.60;85.20;;;;;;5074782;28;20221;-72
2022/12/17 20:45:10;;;;;;;56.92;18.67;;;-1.60;85.10;;;;;;5072828;28;20136;-72
2022/12/17 20:47:37;;;;;;;59.78;18.23;;;-1.70;85.10;;;;;;5053446;28;20052;-72
2022/12/17 20:50:05;;;;;;;55.33;18.40;;;-1.70;85.10;;;;;;5076346;28;20643;-71
2022/12/17 20:52:32;;;;;;;56.80;18.17;;;-1.70;85.20;;;;;;5074931;28;20045;-71
2022/12/17 20:55:01;;;;;;;41.03;12.77;;;-1.70;85.20;;;;;;5083097;28;20123;-71
2022/12/17 20:57:28;;;;;;;54.90;16.90;;;-1.70;85.30;;;;;;5075950;28;20468;-71
2022/12/17 20:59:55;;;;;;;55.60;18.38;;;-1.70;85.10;;;;;;5077388;28;20170;-72
2022/12/17 21:02:22;;;;;;;49.67;16.73;;;-1.70;85.10;;;;;;5058295;28;20128;-72
2022/12/17 21:04:49;;;;;;;60.58;19.23;;;-1.70;85.10;;;;;;5072487;28;20806;-71
2022/12/17 21:07:16;;;;;;;58.03;19.30;;;-1.70;85.00;;;;;;5069037;28;20068;-72
2022/12/17 21:09:43;;;;;;;57.10;17.85;;;-1.70;85.00;;;;;;5062637;28;20813;-72
2022/12/17 21:12:12;;;;;;;53.83;17.65;;;-1.80;85.00;;;;;;5081454;28;20146;-72
2022/12/17 21:14:39;;;;;;;53.67;17.57;;;-1.80;85.10;;;;;;5080188;28;20056;-72
2022/12/17 21:17:06;;;;;;;53.58;16.52;;;-1.80;85.10;;;;;;5081024;28;20040;-72
2022/12/17 21:19:34;;;;;;;54.70;17.20;;;-1.80;85.20;;;;;;5088115;28;20106;-72
2022/12/17 21:22:01;;;;;;;63.15;18.17;;;-1.80;85.20;;;;;;5084209;28;20049;-72
2022/12/17 21:24:28;;;;;;;59.03;18.90;;;-1.80;85.20;;;;;;5091324;28;20045;-72
2022/12/17 21:26:55;;;;;;;66.67;19.70;;;-1.80;85.20;;;;;;5085282;28;20049;-72
2022/12/17 21:29:25;;;;;;;61.22;18.73;;;-1.80;85.20;;;;;;5075779;28;20048;-72
2022/12/17 21:31:52;;;;;;;57.38;17.85;;;-1.80;85.20;;;;;;5074385;28;20053;-72
2022/12/17 21:34:21;;;;;;;71.95;20.70;;;-1.80;85.30;;;;;;5076048;28;20048;-71
2022/12/17 21:36:48;;;;;;;60.85;18.80;;;-1.80;85.40;;;;;;5077493;28;20052;-71
2022/12/17 21:39:17;;;;;;;58.57;19.20;;;-1.80;85.40;;;;;;5075542;28;20169;-71
2022/12/17 21:43:00;;;;;;;54.13;15.95;;;-1.80;85.30;;;;;;5115006;22;20028;-73
2022/12/17 21:44:35;;;;;;;59.35;20.40;;;-1.80;85.30;;;;;;5066888;28;20054;-71
2022/12/17 21:47:02;;;;;;;67.47;20.27;;;-1.80;85.20;;;;;;5059382;28;20140;-72
2022/12/17 21:49:29;;;;;;;52.95;15.88;;;-1.90;85.20;;;;;;5061308;28;20053;-70
2022/12/17 21:51:57;;;;;;;48.20;15.40;;;-1.90;85.20;;;;;;5064230;28;20164;-71
2022/12/17 21:54:25;;;;;;;47.15;14.60;;;-1.90;85.30;;;;;;5072418;28;20053;-71
2022/12/17 21:56:52;;;;;;;55.53;17.27;;;-1.90;85.20;;;;;;5063911;28;20075;-70
2022/12/17 21:59:19;;;;;;;46.47;15.68;;;-1.90;85.20;;;;;;5067050;28;20821;-71
2022/12/17 22:01:48;;;;;;;52.58;17.75;;;-2.00;85.10;;;;;;5071946;28;20052;-70
2022/12/17 22:04:15;;;;;;;31.67;9.07;;;-2.10;85.10;;;;;;5061961;28;20354;-70
2022/12/17 22:06:43;;;;;;;50.55;16.25;;;-2.00;85.20;;;;;;5072301;28;20148;-70
2022/12/17 22:09:10;;;;;;;48.42;15.15;;;-2.10;85.00;;;;;;5063075;28;20515;-70
2022/12/17 22:11:38;;;;;;;43.97;14.65;;;-2.10;85.20;;;;;;5044775;28;20153;-70
2022/12/17 22:14:09;;;;;;;52.20;17.55;;;-2.10;85.30;;;;;;5052293;28;20057;-70
2022/12/17 22:16:41;;;;;;;60.37;18.73;;;-2.10;85.20;;;;;;5058201;28;20049;-71
2022/12/17 22:19:10;;;;;;;47.17;14.77;;;-2.10;85.20;;;;;;5055205;28;20045;-71
2022/12/17 22:21:40;;;;;;;54.33;18.00;;;-2.10;85.30;;;;;;5076157;28;20080;-70
2022/12/17 22:24:12;;;;;;;59.95;18.85;;;-2.20;85.10;;;;;;5043336;28;20057;-71
2022/12/17 22:26:39;;;;;;;52.03;15.23;;;-2.20;85.20;;;;;;5066265;28;20073;-71
2022/12/17 22:29:06;;;;;;;53.90;15.67;;;-2.20;85.30;;;;;;5072064;28;21048;-70
2022/12/17 22:34:19;;;;;;;50.15;16.25;;;-2.20;85.30;;;;;;5056937;28;20060;-70
2022/12/17 22:36:47;;;;;;;50.85;16.33;;;-2.20;85.30;;;;;;5072200;28;20178;-71
2022/12/17 22:39:15;;;;;;;53.97;17.13;;;-2.20;85.40;;;;;;5067708;28;20132;-70
2022/12/17 22:44:27;;;;;;;57.38;16.42;;;-2.20;85.50;;;;;;5053412;28;20068;-70
2022/12/17 22:46:54;;;;;;;53.33;16.35;;;-2.20;85.50;;;;;;5074381;28;20410;-70
2022/12/17 22:49:23;;;;;;;66.05;19.23;;;-2.20;85.50;;;;;;5065739;28;20053;-71
2022/12/17 22:51:50;;;;;;;57.28;17.05;;;-2.20;85.50;;;;;;5079113;28;20548;-70
2022/12/17 22:54:17;;;;;;;52.13;17.67;;;-2.20;85.60;;;;;;5074063;28;20053;-70
2022/12/17 22:56:44;;;;;;;63.78;19.55;;;-2.20;85.70;;;;;;5056794;28;20049;-70
2022/12/17 22:59:16;;;;;;;61.67;19.35;;;-2.10;85.90;;;;;;5067366;28;20048;-71
2022/12/17 23:01:43;;;;;;;59.78;20.02;;;-2.10;85.80;;;;;;5069236;28;20048;-71
2022/12/17 23:04:12;;;;;;;56.08;20.30;;;-2.10;85.90;;;;;;5069925;28;20053;-71
2022/12/17 23:06:41;;;;;;;50.67;14.57;;;-2.10;85.70;;;;;;5110756;22;20931;-71
2022/12/17 23:09:08;;;;;;;47.58;14.23;;;-2.10;85.50;;;;;;5087974;28;20055;-70
2022/12/17 23:11:35;;;;;;;54.78;17.60;;;-2.10;85.50;;;;;;5090406;28;20142;-71
2022/12/17 23:14:02;;;;;;;61.30;16.90;;;-2.20;85.50;;;;;;5091318;28;20068;-71
2022/12/17 23:16:30;;;;;;;56.35;16.42;;;-2.20;85.50;;;;;;5089376;28;20102;-70
2022/12/17 23:19:00;;;;;;;34.17;11.03;;;-2.20;85.50;;;;;;5091456;28;20053;-70
2022/12/17 23:21:27;;;;;;;50.05;15.18;;;-2.20;85.70;;;;;;5090395;28;20155;-70
2022/12/17 23:23:57;;;;;;;64.50;18.83;;;-2.20;85.70;;;;;;5089615;28;20037;-70
2022/12/17 23:26:27;;;;;;;47.80;14.48;;;-2.20;85.60;;;;;;5089860;28;20673;-71
2022/12/17 23:28:57;;;;;;;55.70;17.67;;;-2.30;85.60;;;;;;5085128;28;20406;-70
2022/12/17 23:31:24;;;;;;;46.83;14.97;;;-2.30;85.60;;;;;;5088274;28;20122;-71
2022/12/17 23:33:54;;;;;;;54.55;16.25;;;-2.30;85.60;;;;;;5086816;28;20359;-70
2022/12/17 23:36:24;;;;;;;53.05;16.55;;;-2.30;85.50;;;;;;5090245;28;20055;-70
2022/12/17 23:38:52;;;;;;;38.78;12.55;;;-2.40;85.50;;;;;;5089580;28;20055;-71
2022/12/17 23:41:22;;;;;;;45.33;15.15;;;-2.40;85.50;;;;;;5087444;28;20048;-71
2022/12/17 23:43:50;;;;;;;48.27;14.20;;;-2.40;85.40;;;;;;5088503;28;20052;-70
2022/12/17 23:46:19;;;;;;;55.05;16.23;;;-2.40;85.40;;;;;;5106128;28;20464;-70
2022/12/17 23:48:47;;;;;;;52.00;15.82;;;-2.40;85.50;;;;;;5077456;28;20589;-70
2022/12/17 23:51:16;;;;;;;56.78;16.65;;;-2.50;85.50;;;;;;5090358;28;20058;-71
2022/12/17 23:53:43;;;;;;;58.10;18.08;;;-2.40;85.50;;;;;;5089594;28;20835;-70
2022/12/17 23:56:12;;;;;;;63.37;20.20;;;-2.40;85.60;;;;;;5089534;28;20486;-71
2022/12/17 23:58:43;;;;;;;54.35;17.13;;;-2.40;85.50;;;;;;5090113;28;20532;-70
